createdAt,value
2022-12-19T00:01:28.520Z,40.38
2022-12-19T00:04:26.410Z,40.25
2022-12-19T00:07:13.185Z,40.35
2022-12-19T00:10:06.405Z,40.35
2022-12-19T00:12:53.197Z,40.26
2022-12-19T00:15:47.571Z,40.49
2022-12-19T00:18:41.371Z,40.17
2022-12-19T00:21:30.663Z,40.28
2022-12-19T00:24:24.349Z,40.41
2022-12-19T00:27:17.433Z,40.17
2022-12-19T00:30:18.404Z,40.14
2022-12-19T00:33:05.653Z,40.08
2022-12-19T00:36:07.376Z,40.02
2022-12-19T00:38:56.219Z,40.08
2022-12-19T00:41:49.365Z,39.98
2022-12-19T00:44:42.346Z,40.14
2022-12-19T00:47:35.342Z,40.15
2022-12-19T00:50:22.243Z,40.08
2022-12-19T00:53:15.388Z,40.10
2022-12-19T00:56:04.044Z,40.08
2022-12-19T00:58:57.372Z,40.24
2022-12-19T01:01:44.396Z,40.28
2022-12-19T01:04:41.541Z,39.97
2022-12-19T01:07:28.803Z,40.02
2022-12-19T01:10:22.403Z,40.08
2022-12-19T01:13:09.257Z,40.02
2022-12-19T01:16:03.378Z,39.95
2022-12-19T01:19:03.399Z,39.94
2022-12-19T01:21:59.363Z,40.15
2022-12-19T01:24:53.405Z,39.81
2022-12-19T01:27:46.411Z,39.80
2022-12-19T01:30:40.399Z,40.25
2022-12-19T01:33:28.582Z,39.79
2022-12-19T01:36:28.414Z,39.94
2022-12-19T01:39:15.178Z,39.86
2022-12-19T01:42:08.355Z,40.02
2022-12-19T01:45:13.666Z,39.82
2022-12-19T01:48:16.360Z,39.90
2022-12-19T01:51:16.444Z,39.76
2022-12-19T01:54:15.353Z,39.97
2022-12-19T01:57:20.353Z,39.75
2022-12-19T02:00:10.000Z,39.85
2022-12-19T02:03:15.463Z,39.87
2022-12-19T02:06:05.490Z,39.78
2022-12-19T02:09:00.369Z,39.87
2022-12-19T02:11:57.350Z,40.00
2022-12-19T02:14:51.347Z,39.85
2022-12-19T02:18:06.129Z,39.87
2022-12-19T02:21:19.351Z,39.95
2022-12-19T02:24:11.726Z,39.93
2022-12-19T02:27:17.363Z,39.91
2022-12-19T02:30:10.969Z,39.80
2022-12-19T02:33:30.423Z,39.90
2022-12-19T02:36:36.359Z,39.70
2022-12-19T02:39:38.415Z,40.04
2022-12-19T02:42:42.498Z,39.92
2022-12-19T02:45:42.513Z,39.80
2022-12-19T02:48:36.451Z,39.84
2022-12-19T02:51:29.423Z,39.84
2022-12-19T02:54:23.411Z,39.85
2022-12-19T02:57:28.436Z,40.00
2022-12-19T03:00:22.393Z,39.97
2022-12-19T03:03:28.443Z,40.05
2022-12-19T03:06:27.474Z,39.91
2022-12-19T03:09:32.482Z,39.86
2022-12-19T03:12:29.061Z,39.86
2022-12-19T03:15:22.429Z,40.01
2022-12-19T03:18:10.088Z,40.05
2022-12-19T03:21:27.452Z,39.84
2022-12-19T03:24:22.485Z,40.03
2022-12-19T03:27:27.516Z,39.93
2022-12-19T03:30:21.503Z,40.00
2022-12-19T03:33:11.922Z,39.88
2022-12-19T03:36:10.456Z,39.82
2022-12-19T03:39:08.436Z,40.12
2022-12-19T03:42:23.474Z,39.91
2022-12-19T03:45:13.961Z,40.01
2022-12-19T03:48:14.513Z,39.88
2022-12-19T03:51:25.440Z,40.12
2022-12-19T03:54:34.472Z,40.03
2022-12-19T03:57:34.500Z,40.03
2022-12-19T04:00:21.730Z,39.97
2022-12-19T04:03:16.507Z,39.83
2022-12-19T04:06:04.769Z,40.01
2022-12-19T04:08:58.523Z,39.96
2022-12-19T04:11:56.508Z,40.08
2022-12-19T04:14:44.136Z,40.13
2022-12-19T04:17:47.470Z,40.10
2022-12-19T04:20:47.889Z,40.01
2022-12-19T04:23:41.551Z,39.88
2022-12-19T04:26:37.565Z,40.01
2022-12-19T04:29:40.549Z,40.42
2022-12-19T04:32:28.902Z,40.12
2022-12-19T04:35:22.571Z,40.15
2022-12-19T04:38:09.467Z,40.11
2022-12-19T04:41:03.497Z,40.14
2022-12-19T04:43:56.511Z,40.15
2022-12-19T04:46:43.339Z,40.00
2022-12-19T04:49:36.553Z,40.24
2022-12-19T04:52:23.479Z,40.13
2022-12-19T04:55:17.576Z,40.13
2022-12-19T04:58:13.750Z,39.98
2022-12-19T05:01:05.738Z,40.19
2022-12-19T05:04:04.235Z,40.21
2022-12-19T05:06:51.729Z,40.15
2022-12-19T05:09:45.496Z,40.10
2022-12-19T05:12:32.396Z,40.32
2022-12-19T05:15:25.517Z,40.41
2022-12-19T05:18:18.526Z,40.19
2022-12-19T05:21:06.235Z,40.18
2022-12-19T05:23:59.521Z,40.31
2022-12-19T05:26:54.580Z,40.24
2022-12-19T05:29:47.571Z,40.37
2022-12-19T05:32:41.564Z,40.24
2022-12-19T05:35:34.516Z,40.24
2022-12-19T05:38:21.356Z,40.40
2022-12-19T05:41:20.537Z,40.30
2022-12-19T05:44:13.569Z,40.30
2022-12-19T05:47:06.535Z,40.33
2022-12-19T05:49:59.551Z,40.20
2022-12-19T05:52:52.640Z,40.40
2022-12-19T05:55:39.612Z,40.50
2022-12-19T05:58:32.581Z,40.38
2022-12-19T06:01:31.810Z,40.52
2022-12-19T06:04:25.567Z,40.29
2022-12-19T06:07:16.453Z,40.43
2022-12-19T06:10:13.615Z,40.41
2022-12-19T06:13:06.586Z,40.26
2022-12-19T06:16:21.614Z,40.45
2022-12-19T06:19:15.619Z,40.54
2022-12-19T06:22:02.444Z,40.50
2022-12-19T06:24:55.608Z,40.52
2022-12-19T06:27:49.128Z,40.44
2022-12-19T06:30:42.935Z,40.54
2022-12-19T06:33:31.065Z,40.56
2022-12-19T06:36:30.616Z,40.44
2022-12-19T06:39:17.517Z,40.62
2022-12-19T06:42:29.609Z,40.57
2022-12-19T06:45:16.958Z,40.55
2022-12-19T06:48:10.545Z,40.44
2022-12-19T06:50:57.668Z,40.64
2022-12-19T06:53:51.577Z,40.79
2022-12-19T06:56:40.149Z,40.42
2022-12-19T06:59:33.697Z,40.44
2022-12-19T07:02:36.682Z,40.86
2022-12-19T07:05:30.636Z,40.75
2022-12-19T07:08:17.507Z,40.76
2022-12-19T07:11:11.571Z,40.66
2022-12-19T07:14:05.548Z,40.79
2022-12-19T07:16:55.411Z,40.84
2022-12-19T07:19:49.608Z,40.80
2022-12-19T07:22:37.355Z,40.82
2022-12-19T07:25:30.697Z,40.83
2022-12-19T07:28:24.640Z,40.77
2022-12-19T07:31:17.594Z,41.22
2022-12-19T07:34:04.537Z,41.35
2022-12-19T07:36:57.620Z,41.23
2022-12-19T07:39:50.569Z,41.38
2022-12-19T07:42:37.390Z,41.35
2022-12-19T07:45:30.741Z,41.29
2022-12-19T07:48:24.638Z,41.37
2022-12-19T07:51:11.467Z,41.49
2022-12-19T07:54:05.858Z,41.57
2022-12-19T07:57:02.809Z,41.50
2022-12-19T07:59:49.759Z,41.31
2022-12-19T08:02:43.726Z,41.71
2022-12-19T08:05:37.744Z,41.37
2022-12-19T08:08:31.587Z,42.14
2022-12-19T08:11:27.286Z,42.14
2022-12-19T08:14:22.649Z,42.24
2022-12-19T08:17:25.091Z,42.25
2022-12-19T08:20:18.655Z,42.15
2022-12-19T08:23:05.573Z,42.34
2022-12-19T08:26:12.673Z,42.38
2022-12-19T08:29:06.737Z,42.16
2022-12-19T08:32:06.672Z,41.91
2022-12-19T08:34:55.052Z,41.93
2022-12-19T08:37:48.743Z,41.92
2022-12-19T08:40:35.591Z,41.67
2022-12-19T08:43:28.660Z,41.77
2022-12-19T08:46:18.281Z,41.69
2022-12-19T08:49:11.661Z,41.60
2022-12-19T08:52:04.656Z,41.71
2022-12-19T08:54:54.589Z,41.72
2022-12-19T08:57:47.602Z,41.52
2022-12-19T09:00:34.410Z,41.54
2022-12-19T09:03:29.510Z,41.50
2022-12-19T09:06:37.816Z,41.48
2022-12-19T09:09:31.664Z,41.64
2022-12-19T09:12:18.724Z,41.70
2022-12-19T09:15:12.687Z,41.67
2022-12-19T09:17:59.648Z,41.47
2022-12-19T09:20:52.675Z,41.50
2022-12-19T09:23:40.799Z,41.91
2022-12-19T09:26:34.673Z,41.67
2022-12-19T09:29:35.654Z,41.72
2022-12-19T09:32:29.661Z,41.57
2022-12-19T09:35:27.039Z,41.52
2022-12-19T09:38:23.669Z,41.79
2022-12-19T09:41:13.531Z,41.76
2022-12-19T09:44:27.705Z,41.81
2022-12-19T09:47:24.731Z,41.45
2022-12-19T09:50:40.718Z,41.58
2022-12-19T09:53:53.810Z,41.81
2022-12-19T09:56:45.665Z,41.57
2022-12-19T09:59:49.952Z,41.85
2022-12-19T10:03:06.156Z,41.71
2022-12-19T10:07:12.935Z,41.66
2022-12-19T10:12:18.116Z,41.47
2022-12-19T10:13:03.646Z,41.46
2022-12-19T10:16:19.723Z,41.59
2022-12-19T10:19:16.786Z,41.68
2022-12-19T10:22:28.711Z,41.25
2022-12-19T10:25:34.715Z,41.23
2022-12-19T10:28:43.697Z,40.90
2022-12-19T10:32:03.868Z,41.32
2022-12-19T10:34:53.243Z,41.48
2022-12-19T10:37:54.695Z,41.56
2022-12-19T10:41:00.811Z,41.63
2022-12-19T10:44:15.770Z,41.92
2022-12-19T10:47:08.803Z,41.46
2022-12-19T10:50:09.014Z,41.66
2022-12-19T10:53:13.725Z,41.63
2022-12-19T10:56:19.101Z,41.54
2022-12-19T10:59:26.698Z,41.76
2022-12-19T11:02:35.442Z,42.11
2022-12-19T11:05:38.790Z,41.82
2022-12-19T11:08:28.634Z,41.62
2022-12-19T11:14:29.751Z,41.81
2022-12-19T11:17:37.907Z,41.81
2022-12-19T11:27:53.494Z,41.97
2022-12-19T11:29:32.717Z,42.25
2022-12-19T11:30:25.966Z,42.51
2022-12-19T11:30:48.365Z,42.33
2022-12-19T11:34:37.359Z,42.24
2022-12-19T11:37:45.771Z,41.87
2022-12-19T11:40:50.952Z,42.13
2022-12-19T11:43:54.784Z,41.95
2022-12-19T11:47:01.777Z,41.72
2022-12-19T11:49:59.787Z,41.55
2022-12-19T11:53:04.849Z,42.00
2022-12-19T11:56:16.418Z,42.05
2022-12-19T11:59:22.723Z,42.77
2022-12-19T12:02:33.798Z,42.57
2022-12-19T12:05:29.802Z,42.60
2022-12-19T12:10:35.952Z,42.74
2022-12-19T12:19:49.565Z,42.43
2022-12-19T12:25:03.341Z,42.40
2022-12-19T12:31:19.239Z,41.88
2022-12-19T12:31:41.205Z,42.96
2022-12-19T12:31:44.723Z,42.57
2022-12-19T12:35:08.606Z,42.49
2022-12-19T12:35:48.608Z,42.74
2022-12-19T12:38:10.947Z,42.85
2022-12-19T12:40:49.765Z,42.77
2022-12-19T12:44:16.803Z,42.46
2022-12-19T12:47:21.795Z,42.35
2022-12-19T12:50:22.855Z,42.37
2022-12-19T12:53:12.880Z,42.15
2022-12-19T12:56:13.591Z,42.23
2022-12-19T12:59:00.608Z,42.35
2022-12-19T13:02:02.056Z,42.78
2022-12-19T13:04:58.764Z,42.56
2022-12-19T13:08:01.797Z,42.55
2022-12-19T13:11:12.048Z,42.51
2022-12-19T13:14:05.899Z,42.56
2022-12-19T13:16:59.846Z,43.02
2022-12-19T13:20:06.944Z,43.01
2022-12-19T13:23:12.835Z,42.79
2022-12-19T13:26:13.709Z,42.56
2022-12-19T13:29:34.810Z,42.80
2022-12-19T13:32:22.651Z,42.81
2022-12-19T13:37:42.418Z,42.85
2022-12-19T13:39:49.082Z,42.34
2022-12-19T13:42:05.838Z,42.23
2022-12-19T13:45:02.782Z,42.06
2022-12-19T13:47:56.846Z,42.64
2022-12-19T13:50:53.781Z,42.81
2022-12-19T13:53:52.995Z,42.98
2022-12-19T13:56:57.810Z,42.63
2022-12-19T13:59:59.959Z,42.71
2022-12-19T14:02:55.279Z,42.61
2022-12-19T14:06:17.343Z,42.46
2022-12-19T14:11:24.692Z,43.00
2022-12-19T14:14:01.377Z,42.61
2022-12-19T14:16:22.854Z,42.76
2022-12-19T14:19:37.877Z,42.88
2022-12-19T14:22:33.820Z,42.70
2022-12-19T14:28:14.182Z,42.29
2022-12-19T14:28:54.575Z,42.13
2022-12-19T14:32:23.784Z,42.78
2022-12-19T14:36:05.379Z,43.00
2022-12-19T14:39:24.147Z,43.64
2022-12-19T14:42:03.055Z,43.72
2022-12-19T14:53:10.923Z,43.78
2022-12-19T14:54:02.055Z,43.81
2022-12-19T14:54:40.478Z,43.80
2022-12-19T14:56:17.492Z,44.30
2022-12-19T14:59:03.967Z,44.11
2022-12-19T15:02:33.979Z,44.44
2022-12-19T15:05:22.247Z,44.21
2022-12-19T15:09:02.399Z,43.46
2022-12-19T15:14:20.862Z,43.41
2022-12-19T15:15:32.854Z,43.57
2022-12-19T15:18:45.902Z,43.41
2022-12-19T15:21:38.841Z,43.80
2022-12-19T15:24:31.892Z,43.40
2022-12-19T15:27:24.833Z,43.53
2022-12-19T15:30:23.956Z,42.88
2022-12-19T15:33:23.899Z,43.15
2022-12-19T15:36:10.763Z,42.92
2022-12-19T15:39:03.904Z,42.97
2022-12-19T15:41:53.611Z,42.93
2022-12-19T15:44:48.940Z,43.19
2022-12-19T15:47:43.907Z,43.49
2022-12-19T15:50:38.864Z,43.51
2022-12-19T15:53:40.269Z,43.47
2022-12-19T15:56:36.905Z,43.72
2022-12-19T15:59:44.913Z,43.51
2022-12-19T16:02:56.875Z,43.62
2022-12-19T16:05:46.670Z,43.77
2022-12-19T16:08:34.083Z,43.64
2022-12-19T16:11:30.920Z,43.82
2022-12-19T16:14:18.245Z,43.80
2022-12-19T16:17:12.955Z,43.98
2022-12-19T16:20:05.918Z,43.83
2022-12-19T16:22:53.438Z,43.95
2022-12-19T16:25:52.852Z,43.82
2022-12-19T16:28:46.007Z,43.72
2022-12-19T16:31:38.949Z,43.95
2022-12-19T16:34:32.928Z,43.74
2022-12-19T16:37:31.965Z,43.99
2022-12-19T16:40:27.886Z,43.92
2022-12-19T16:43:26.882Z,43.93
2022-12-19T16:46:25.985Z,43.47
2022-12-19T16:49:23.940Z,43.88
2022-12-19T16:52:10.823Z,43.90
2022-12-19T16:55:04.015Z,43.93
2022-12-19T16:58:01.897Z,43.89
2022-12-19T17:00:59.011Z,44.00
2022-12-19T17:03:46.163Z,43.84
2022-12-19T17:06:39.952Z,44.00
2022-12-19T17:09:32.935Z,43.72
2022-12-19T17:12:26.900Z,43.37
2022-12-19T17:15:38.980Z,43.44
2022-12-19T17:18:56.363Z,43.49
2022-12-19T17:21:51.973Z,43.92
2022-12-19T17:24:38.886Z,44.27
2022-12-19T17:28:28.420Z,44.94
2022-12-19T17:35:42.189Z,46.04
2022-12-19T17:39:06.965Z,46.55
2022-12-19T17:42:03.957Z,47.25
2022-12-19T17:44:51.313Z,47.54
2022-12-19T17:47:44.936Z,48.22
2022-12-19T17:50:40.770Z,47.87
2022-12-19T17:53:33.967Z,48.03
2022-12-19T17:56:23.466Z,48.24
2022-12-19T17:59:18.153Z,48.50
2022-12-19T18:02:24.196Z,48.41
2022-12-19T18:08:41.982Z,47.31
2022-12-19T18:11:39.949Z,46.51
2022-12-19T18:14:36.036Z,46.01
2022-12-19T18:21:32.651Z,45.91
2022-12-19T18:24:19.519Z,45.59
2022-12-19T18:27:14.023Z,45.30
2022-12-19T18:30:14.029Z,45.33
2022-12-19T18:33:03.069Z,45.55
2022-12-19T18:35:58.855Z,45.70
2022-12-19T18:38:46.351Z,45.10
2022-12-19T18:41:40.038Z,45.20
2022-12-19T18:44:27.074Z,45.06
2022-12-19T18:47:27.040Z,45.13
2022-12-19T18:50:25.218Z,45.28
2022-12-19T18:53:20.972Z,45.16
2022-12-19T18:56:12.079Z,45.34
2022-12-19T18:59:10.068Z,45.37
2022-12-19T19:01:57.813Z,45.55
2022-12-19T19:04:51.990Z,45.22
2022-12-19T19:07:38.973Z,45.15
2022-12-19T19:10:35.982Z,45.43
2022-12-19T19:13:25.687Z,45.44
2022-12-19T19:16:27.017Z,45.45
2022-12-19T19:19:18.390Z,45.53
2022-12-19T19:22:11.980Z,45.35
2022-12-19T19:24:59.706Z,45.32
2022-12-19T19:27:53.425Z,45.28
2022-12-19T19:30:47.834Z,45.24
2022-12-19T19:33:47.038Z,44.99
2022-12-19T19:36:43.973Z,45.46
2022-12-19T19:39:40.059Z,45.45
2022-12-19T19:42:33.030Z,45.35
2022-12-19T19:45:19.934Z,45.47
2022-12-19T19:48:14.986Z,45.40
2022-12-19T19:51:03.249Z,45.37
2022-12-19T19:53:57.069Z,45.65
2022-12-19T19:56:50.044Z,45.65
2022-12-19T19:59:43.003Z,45.81
2022-12-19T20:02:30.378Z,46.02
2022-12-19T20:05:24.093Z,46.10
2022-12-19T20:08:11.389Z,46.03
2022-12-19T20:14:49.310Z,46.18
2022-12-19T20:17:36.172Z,46.09
2022-12-19T20:20:30.041Z,46.07
2022-12-19T21:15:54.379Z,45.22
2022-12-19T21:18:43.213Z,45.48
2022-12-19T21:21:37.144Z,45.76
2022-12-19T21:24:24.067Z,45.41
2022-12-19T21:27:18.066Z,45.46
2022-12-19T21:30:05.313Z,45.73
2022-12-19T21:32:59.092Z,45.82
2022-12-19T21:35:53.877Z,46.03
2022-12-19T21:38:47.124Z,45.62
2022-12-19T21:41:41.151Z,45.93
2022-12-19T21:44:34.083Z,45.76
2022-12-19T21:47:28.105Z,45.50
2022-12-19T21:50:28.119Z,45.45
2022-12-19T21:53:22.093Z,45.14
2022-12-19T21:56:16.940Z,45.25
2022-12-19T21:59:13.079Z,45.38
2022-12-19T22:02:06.213Z,45.41
2022-12-19T22:05:00.091Z,45.19
2022-12-19T22:07:46.931Z,45.20
2022-12-19T22:10:40.152Z,45.49
2022-12-19T22:13:27.165Z,45.41
2022-12-19T22:16:22.702Z,45.62
2022-12-19T22:19:19.127Z,45.91
2022-12-19T22:22:13.196Z,46.02
2022-12-19T22:25:06.326Z,46.21
2022-12-19T22:28:02.157Z,46.37
2022-12-19T22:30:55.334Z,46.48
2022-12-19T22:33:49.116Z,46.53
2022-12-19T22:36:46.113Z,46.77
2022-12-19T22:39:39.142Z,46.60
2022-12-19T22:42:27.871Z,46.72
2022-12-19T22:45:21.145Z,46.58
2022-12-19T22:48:14.170Z,46.64
2022-12-19T22:51:17.243Z,46.76
2022-12-19T22:54:11.124Z,46.83
2022-12-19T22:57:11.137Z,46.95
2022-12-19T23:00:04.240Z,46.84
2022-12-19T23:02:57.316Z,47.03
2022-12-19T23:05:50.144Z,46.75
2022-12-19T23:08:46.164Z,47.08
2022-12-19T23:11:36.915Z,46.44
2022-12-19T23:14:30.296Z,46.76
2022-12-19T23:17:17.538Z,46.90
2022-12-19T23:20:12.196Z,46.81
2022-12-19T23:22:59.039Z,46.79
2022-12-19T23:25:53.210Z,46.83
2022-12-19T23:28:40.433Z,46.74
2022-12-19T23:31:35.196Z,46.86
2022-12-19T23:34:28.135Z,46.78
2022-12-19T23:37:14.984Z,46.78
2022-12-19T23:40:08.183Z,46.58
2022-12-19T23:42:55.406Z,46.72
2022-12-19T23:45:49.236Z,46.74
2022-12-19T23:48:43.225Z,46.46
2022-12-19T23:51:43.244Z,46.52
2022-12-19T23:54:37.231Z,46.71
2022-12-19T23:57:30.184Z,46.49
